Time;durP1;ratioP1;P1;durP2;ratioP2;P2;SDS_P1;SDS_P2;PMS_P1;PMS_P2;Temp;Humidity;BMP_temperature;BMP_pressure;BME280_temperature;BME280_humidity;BME280_pressure;Samples;Min_cycle;Max_cycle;Signal;HPM_P1;HPM_P2
2023/08/09 00:02:07;;;;;;;4.15;1.92;;;15.90;71.30;;;;;;5017429;28;20048;-77
2023/08/09 00:04:33;;;;;;;4.22;2.22;;;15.90;71.40;;;;;;5000739;28;20042;-77
2023/08/09 00:06:59;;;;;;;5.15;2.58;;;15.80;71.30;;;;;;5033534;28;20045;-77
2023/08/09 00:09:24;;;;;;;2.95;2.17;;;15.80;71.30;;;;;;5017432;28;20041;-77
2023/08/09 00:11:50;;;;;;;3.40;1.95;;;15.80;71.50;;;;;;5000652;28;20607;-77
2023/08/09 00:14:16;;;;;;;3.95;2.53;;;15.80;71.40;;;;;;5017233;28;20099;-77
2023/08/09 00:16:41;;;;;;;5.55;2.70;;;15.80;71.60;;;;;;5033218;28;20409;-77
2023/08/09 00:19:09;;;;;;;3.95;2.25;;;15.80;71.70;;;;;;5049873;28;20116;-77
2023/08/09 00:21:36;;;;;;;6.05;2.40;;;15.70;71.60;;;;;;5033294;28;20468;-77
2023/08/09 00:24:03;;;;;;;5.43;2.38;;;15.70;71.60;;;;;;5033160;28;20053;-77
2023/08/09 00:26:28;;;;;;;3.50;1.98;;;15.70;71.60;;;;;;5033167;28;20049;-77
2023/08/09 00:28:55;;;;;;;4.07;2.08;;;15.70;71.60;;;;;;5017010;28;20034;-77
2023/08/09 00:31:21;;;;;;;3.75;2.03;;;15.70;71.60;;;;;;4999956;28;20386;-76
2023/08/09 00:33:47;;;;;;;4.43;2.20;;;15.70;71.60;;;;;;5016729;28;20041;-77
2023/08/09 00:36:12;;;;;;;2.33;1.77;;;15.70;71.60;;;;;;5033293;28;20136;-77
2023/08/09 00:38:39;;;;;;;4.22;2.22;;;15.60;71.60;;;;;;5016734;28;20484;-77
2023/08/09 00:41:04;;;;;;;3.13;1.92;;;15.60;71.70;;;;;;5000340;28;20041;-77
2023/08/09 00:43:31;;;;;;;2.67;1.77;;;15.60;71.70;;;;;;5016697;28;20049;-77
2023/08/09 00:45:57;;;;;;;4.50;2.42;;;15.60;71.80;;;;;;5033019;28;20087;-77
2023/08/09 00:48:23;;;;;;;4.07;2.10;;;15.60;71.70;;;;;;4984107;28;20486;-77
2023/08/09 00:50:49;;;;;;;5.80;2.20;;;15.60;71.70;;;;;;5031958;28;20037;-77
2023/08/09 00:53:16;;;;;;;6.50;2.72;;;15.50;71.60;;;;;;5032569;28;20052;-77
2023/08/09 00:55:42;;;;;;;3.50;2.08;;;15.50;71.60;;;;;;5032578;28;20063;-77
2023/08/09 00:58:07;;;;;;;3.00;2.05;;;15.50;71.50;;;;;;5032884;28;20041;-77
2023/08/09 01:00:34;;;;;;;3.92;2.22;;;15.50;71.50;;;;;;5032486;28;20042;-77
2023/08/09 01:03:00;;;;;;;2.72;2.05;;;15.50;71.50;;;;;;5032493;28;20048;-77
2023/08/09 01:05:33;;;;;;;4.28;2.33;;;15.50;71.60;;;;;;5015998;28;20068;-77
2023/08/09 01:08:14;;;;;;;4.65;2.92;;;15.40;71.50;;;;;;5032159;28;20042;-77
2023/08/09 01:10:49;;;;;;;3.88;1.88;;;15.40;71.60;;;;;;5032336;28;20037;-77
2023/08/09 01:13:19;;;;;;;3.47;2.50;;;15.40;71.60;;;;;;5032486;28;20076;-78
2023/08/09 01:15:46;;;;;;;4.82;2.17;;;15.40;71.60;;;;;;5000224;28;20045;-77
2023/08/09 01:18:13;;;;;;;3.90;2.45;;;15.30;71.60;;;;;;5032238;28;20045;-77
2023/08/09 01:20:40;;;;;;;5.68;3.17;;;15.30;71.60;;;;;;5016225;28;20052;-77
2023/08/09 01:23:17;;;;;;;3.67;2.58;;;15.30;71.70;;;;;;5015773;28;20135;-78
2023/08/09 01:25:43;;;;;;;4.38;2.40;;;15.30;71.60;;;;;;5016219;28;20033;-77
2023/08/09 01:28:09;;;;;;;2.78;1.88;;;15.30;71.60;;;;;;5032357;28;20040;-77
2023/08/09 01:30:35;;;;;;;4.53;2.70;;;15.30;71.60;;;;;;5015371;28;20053;-77
2023/08/09 01:33:01;;;;;;;5.28;3.13;;;15.20;71.60;;;;;;5015619;28;20524;-77
2023/08/09 01:35:34;;;;;;;3.92;2.72;;;15.20;71.60;;;;;;5032044;28;20045;-77
2023/08/09 01:38:06;;;;;;;3.70;2.80;;;15.20;71.70;;;;;;5049005;28;20432;-77
2023/08/09 01:40:33;;;;;;;3.72;2.75;;;15.20;71.70;;;;;;5015659;28;20045;-77
2023/08/09 01:42:59;;;;;;;3.13;2.63;;;15.20;71.80;;;;;;5015582;28;20370;-77
2023/08/09 01:45:25;;;;;;;4.07;2.85;;;15.20;71.90;;;;;;5015317;28;20438;-78
2023/08/09 01:47:51;;;;;;;4.88;2.90;;;15.10;71.90;;;;;;5031618;28;20042;-78
2023/08/09 01:50:23;;;;;;;3.70;2.55;;;15.10;71.90;;;;;;4998981;28;20038;-77
2023/08/09 01:52:49;;;;;;;5.22;3.00;;;15.10;72.00;;;;;;5031841;28;20041;-77
2023/08/09 01:55:18;;;;;;;4.22;2.75;;;15.10;72.00;;;;;;4999097;28;20444;-77
2023/08/09 01:57:48;;;;;;;4.65;3.22;;;15.10;72.10;;;;;;5015152;28;20128;-78
2023/08/09 02:00:19;;;;;;;3.85;2.85;;;15.00;72.20;;;;;;5015016;28;20041;-77
2023/08/09 02:02:45;;;;;;;3.58;2.38;;;15.00;72.20;;;;;;5034968;28;20088;-77
2023/08/09 02:05:11;;;;;;;5.32;2.90;;;15.00;72.20;;;;;;5019197;28;20044;-77
2023/08/09 02:07:37;;;;;;;4.97;3.25;;;15.00;72.30;;;;;;5019336;28;20041;-77
2023/08/09 02:10:04;;;;;;;3.47;2.47;;;15.00;72.30;;;;;;5019298;28;20056;-77
2023/08/09 02:12:30;;;;;;;4.13;2.80;;;14.90;72.20;;;;;;5003058;28;20504;-77
2023/08/09 02:14:56;;;;;;;4.00;2.92;;;14.90;72.20;;;;;;5035683;28;20060;-77
2023/08/09 02:17:22;;;;;;;3.83;2.40;;;14.90;72.10;;;;;;5019116;28;20116;-77
2023/08/09 02:19:48;;;;;;;4.32;2.45;;;14.90;72.10;;;;;;5019437;28;20135;-77
2023/08/09 02:22:17;;;;;;;4.57;2.25;;;14.90;72.10;;;;;;5002858;28;20487;-78
2023/08/09 02:24:43;;;;;;;5.80;3.30;;;14.90;72.10;;;;;;5018951;28;20048;-77
2023/08/09 02:27:09;;;;;;;4.80;2.95;;;14.80;72.00;;;;;;5035454;28;20120;-77
2023/08/09 02:29:36;;;;;;;4.85;3.33;;;14.80;72.00;;;;;;5002938;28;20132;-77
2023/08/09 02:32:02;;;;;;;5.22;3.45;;;14.80;72.00;;;;;;5002415;28;20507;-77
2023/08/09 02:34:28;;;;;;;3.97;2.88;;;14.80;72.00;;;;;;5019120;28;20044;-77
2023/08/09 02:36:54;;;;;;;4.40;2.65;;;14.80;72.00;;;;;;5035254;28;20539;-77
2023/08/09 02:39:20;;;;;;;4.30;2.60;;;14.70;72.00;;;;;;5019097;28;20465;-78
2023/08/09 02:41:46;;;;;;;4.07;2.75;;;14.70;72.10;;;;;;5035114;28;20124;-77
2023/08/09 02:44:12;;;;;;;4.75;3.10;;;14.70;72.10;;;;;;5035033;28;20041;-77
2023/08/09 02:46:38;;;;;;;3.55;2.28;;;14.70;72.20;;;;;;4986126;28;20500;-77
2023/08/09 02:49:04;;;;;;;4.68;3.00;;;14.60;72.10;;;;;;5035040;28;20080;-77
2023/08/09 02:51:30;;;;;;;3.88;2.83;;;14.60;72.20;;;;;;5018461;28;20037;-77
2023/08/09 02:54:05;;;;;;;4.05;2.90;;;14.60;72.30;;;;;;5018749;28;20044;-77
2023/08/09 02:56:32;;;;;;;3.40;2.53;;;14.60;72.30;;;;;;5035018;28;20089;-77
2023/08/09 02:58:59;;;;;;;3.75;2.80;;;14.60;72.40;;;;;;5034987;28;20045;-77
2023/08/09 03:01:25;;;;;;;3.88;2.80;;;14.50;72.40;;;;;;5018361;28;20045;-77
2023/08/09 03:03:52;;;;;;;3.95;2.85;;;14.50;72.40;;;;;;5034765;28;20052;-78
2023/08/09 03:06:22;;;;;;;3.10;2.55;;;14.50;72.50;;;;;;5018394;28;20037;-77
2023/08/09 03:08:51;;;;;;;4.97;3.05;;;14.50;72.50;;;;;;5018085;28;20041;-77
2023/08/09 03:11:19;;;;;;;3.58;2.72;;;14.40;72.60;;;;;;5017947;28;20046;-77
2023/08/09 03:13:45;;;;;;;3.70;2.97;;;14.40;72.70;;;;;;5017533;28;20132;-78
2023/08/09 03:16:12;;;;;;;3.97;2.67;;;14.40;72.70;;;;;;5018027;28;20468;-78
2023/08/09 03:18:39;;;;;;;3.67;2.63;;;14.40;72.70;;;;;;5018289;28;20405;-78
2023/08/09 03:21:05;;;;;;;3.88;2.75;;;14.30;72.70;;;;;;5034550;28;20579;-78
2023/08/09 03:23:31;;;;;;;5.25;2.92;;;14.30;72.80;;;;;;5001539;28;20038;-78
2023/08/09 03:25:56;;;;;;;3.97;2.50;;;14.30;72.80;;;;;;5018141;28;20060;-77
2023/08/09 03:28:22;;;;;;;5.60;3.05;;;14.30;72.90;;;;;;5017861;28;20045;-78
2023/08/09 03:30:48;;;;;;;4.20;2.90;;;14.30;73.00;;;;;;5017392;28;20057;-77
2023/08/09 03:33:14;;;;;;;3.60;2.88;;;14.30;73.00;;;;;;5017998;28;20049;-77
2023/08/09 03:35:39;;;;;;;3.55;2.28;;;14.20;72.90;;;;;;5017869;28;20038;-78
2023/08/09 03:38:05;;;;;;;4.38;2.75;;;14.20;73.00;;;;;;5017977;28;20052;-77
2023/08/09 03:40:31;;;;;;;4.40;2.30;;;14.20;73.00;;;;;;5017698;28;20037;-77
2023/08/09 03:42:56;;;;;;;4.00;2.50;;;14.20;73.00;;;;;;5001156;28;20041;-77
2023/08/09 03:45:23;;;;;;;6.25;3.17;;;14.20;73.00;;;;;;5017747;28;20033;-77
2023/08/09 03:47:48;;;;;;;4.05;2.38;;;14.10;72.90;;;;;;5034181;28;20049;-77
2023/08/09 03:50:14;;;;;;;3.67;2.17;;;14.10;72.90;;;;;;5001134;28;20499;-77
2023/08/09 03:52:40;;;;;;;3.53;2.50;;;14.10;73.00;;;;;;5017444;28;20091;-77
2023/08/09 03:55:06;;;;;;;3.97;2.78;;;14.10;73.00;;;;;;5033689;28;20378;-78
2023/08/09 03:57:32;;;;;;;3.70;2.45;;;14.10;73.00;;;;;;5001168;28;20037;-78
2023/08/09 03:59:58;;;;;;;3.08;2.35;;;14.10;73.10;;;;;;5000826;28;20562;-78
2023/08/09 04:02:24;;;;;;;3.97;2.40;;;14.00;73.00;;;;;;5017222;28;20084;-77
2023/08/09 04:04:50;;;;;;;4.18;2.45;;;14.00;73.00;;;;;;5033567;28;20124;-77
2023/08/09 04:07:15;;;;;;;4.32;2.47;;;14.00;73.10;;;;;;5000904;28;20076;-77
2023/08/09 04:09:41;;;;;;;4.38;2.42;;;14.00;73.10;;;;;;5000700;28;20041;-77
2023/08/09 04:12:08;;;;;;;3.53;2.35;;;14.00;73.20;;;;;;5000658;28;20040;-77
2023/08/09 04:14:33;;;;;;;3.22;2.50;;;14.00;73.20;;;;;;5016928;28;20485;-78
2023/08/09 04:16:59;;;;;;;4.13;2.45;;;13.90;73.20;;;;;;5033319;28;20068;-78
2023/08/09 04:19:29;;;;;;;4.13;2.65;;;13.90;73.20;;;;;;5049794;28;20111;-78
2023/08/09 04:21:55;;;;;;;3.65;2.38;;;13.90;73.30;;;;;;5033172;28;20053;-77
2023/08/09 04:24:20;;;;;;;3.33;1.90;;;13.90;73.30;;;;;;5032904;28;20047;-77
2023/08/09 04:26:46;;;;;;;3.80;2.17;;;13.90;73.40;;;;;;5016593;28;20495;-77
2023/08/09 04:29:12;;;;;;;3.10;2.42;;;13.80;73.40;;;;;;5016930;28;20048;-77
2023/08/09 04:31:38;;;;;;;3.58;2.53;;;13.80;73.40;;;;;;5032929;28;20520;-77
2023/08/09 04:34:05;;;;;;;3.13;2.50;;;13.90;73.50;;;;;;5032969;28;20139;-77
2023/08/09 04:36:31;;;;;;;2.90;2.30;;;13.80;73.50;;;;;;5033271;28;20754;-77
2023/08/09 04:38:59;;;;;;;3.53;2.70;;;13.80;73.60;;;;;;5016882;28;20533;-78
2023/08/09 04:41:25;;;;;;;3.40;2.53;;;13.80;73.70;;;;;;5016483;28;20041;-77
2023/08/09 04:43:51;;;;;;;3.70;3.30;;;13.80;73.70;;;;;;5016467;28;20095;-78
2023/08/09 04:46:17;;;;;;;3.60;2.83;;;13.80;73.80;;;;;;5000060;28;20478;-78
2023/08/09 04:48:46;;;;;;;6.50;3.28;;;13.80;73.90;;;;;;5016163;28;20041;-77
2023/08/09 04:51:12;;;;;;;6.32;3.88;;;13.70;73.90;;;;;;5049338;28;20041;-77
2023/08/09 04:53:38;;;;;;;4.35;3.30;;;13.80;74.20;;;;;;5016348;28;20045;-77
2023/08/09 04:56:04;;;;;;;4.18;3.42;;;13.70;74.40;;;;;;5032665;28;20037;-77
2023/08/09 04:58:30;;;;;;;4.68;4.10;;;13.70;74.50;;;;;;5032624;28;20037;-78
2023/08/09 05:00:57;;;;;;;5.70;3.97;;;13.70;74.70;;;;;;5032827;28;20459;-78
2023/08/09 05:03:23;;;;;;;4.75;4.05;;;13.70;74.90;;;;;;5016164;28;20049;-79
2023/08/09 05:05:48;;;;;;;3.92;3.50;;;13.70;75.10;;;;;;5032605;28;20093;-79
2023/08/09 05:08:14;;;;;;;7.05;5.32;;;13.80;75.30;;;;;;5032686;28;20037;-78
2023/08/09 05:10:40;;;;;;;5.70;5.20;;;13.70;75.60;;;;;;5016026;28;20045;-78
2023/08/09 05:13:06;;;;;;;6.53;5.93;;;13.80;76.60;;;;;;5032665;28;20033;-78
2023/08/09 05:15:32;;;;;;;5.05;4.55;;;13.80;77.30;;;;;;5032857;28;20488;-78
2023/08/09 05:17:58;;;;;;;6.50;4.95;;;13.90;78.00;;;;;;4999786;28;20400;-78
2023/08/09 05:20:24;;;;;;;5.78;4.97;;;14.00;77.90;;;;;;5016123;28;20440;-77
2023/08/09 05:22:50;;;;;;;5.30;4.80;;;14.20;77.60;;;;;;5032073;28;20068;-78
2023/08/09 05:25:17;;;;;;;5.75;5.25;;;14.20;77.20;;;;;;5015813;28;20044;-78
2023/08/09 05:27:47;;;;;;;5.63;5.13;;;14.30;77.00;;;;;;5015712;28;20124;-78
2023/08/09 05:30:16;;;;;;;5.25;4.75;;;14.30;76.80;;;;;;5031982;28;20072;-77
2023/08/09 05:32:42;;;;;;;4.43;4.03;;;14.30;76.70;;;;;;4999376;28;20049;-79
2023/08/09 05:35:08;;;;;;;5.75;5.13;;;14.40;76.70;;;;;;4999541;28;20099;-79
2023/08/09 05:37:34;;;;;;;5.22;4.72;;;14.40;76.60;;;;;;4998972;28;20388;-79
2023/08/09 05:39:59;;;;;;;5.00;4.50;;;14.40;76.70;;;;;;5015836;28;20124;-78
2023/08/09 05:42:25;;;;;;;5.10;4.60;;;14.40;76.70;;;;;;5032014;28;20478;-78
2023/08/09 05:44:51;;;;;;;5.45;4.88;;;14.40;76.70;;;;;;5015331;28;20063;-79
2023/08/09 05:47:17;;;;;;;5.22;4.82;;;14.50;76.90;;;;;;5015596;28;20049;-79
2023/08/09 05:49:42;;;;;;;5.13;4.63;;;14.50;77.10;;;;;;5031855;28;20128;-77
2023/08/09 05:52:08;;;;;;;6.80;5.05;;;14.50;77.60;;;;;;4999352;28;20077;-76
2023/08/09 05:54:34;;;;;;;5.47;4.97;;;14.60;78.60;;;;;;4982818;28;20575;-78
2023/08/09 05:57:01;;;;;;;4.82;4.43;;;14.70;79.20;;;;;;5032006;28;20053;-77
2023/08/09 05:59:26;;;;;;;5.32;4.78;;;14.90;79.70;;;;;;5015512;28;20038;-77
2023/08/09 06:01:52;;;;;;;4.30;3.90;;;15.20;79.80;;;;;;4998710;28;20503;-77
2023/08/09 06:04:18;;;;;;;4.85;3.25;;;15.70;79.70;;;;;;5031647;28;20119;-78
2023/08/09 06:06:45;;;;;;;3.90;3.50;;;16.10;79.00;;;;;;5015307;28;20033;-77
2023/08/09 06:09:10;;;;;;;4.18;3.63;;;16.60;78.20;;;;;;4999032;28;20171;-78
2023/08/09 06:11:36;;;;;;;3.72;3.33;;;17.20;77.00;;;;;;5015474;28;20120;-77
2023/08/09 06:14:03;;;;;;;3.42;3.08;;;17.70;75.60;;;;;;5031573;28;20455;-78
2023/08/09 06:16:29;;;;;;;3.60;3.00;;;18.20;74.00;;;;;;5031496;28;20072;-78
2023/08/09 06:18:55;;;;;;;3.55;2.78;;;18.70;72.10;;;;;;5015473;28;20041;-78
2023/08/09 06:21:21;;;;;;;3.28;2.40;;;19.10;70.50;;;;;;5031708;28;20393;-78
2023/08/09 06:23:46;;;;;;;3.88;2.90;;;19.60;69.30;;;;;;5031699;28;20056;-79
2023/08/09 06:26:12;;;;;;;2.90;2.45;;;20.10;67.80;;;;;;4998787;28;20401;-77
2023/08/09 06:28:38;;;;;;;3.72;2.58;;;20.50;66.20;;;;;;5031513;28;20118;-78
2023/08/09 06:31:04;;;;;;;2.80;2.33;;;20.90;65.30;;;;;;4998516;28;20049;-78
2023/08/09 06:33:30;;;;;;;2.95;2.30;;;21.30;64.00;;;;;;4998619;28;20052;-78
2023/08/09 06:35:56;;;;;;;2.95;2.50;;;21.70;62.40;;;;;;5015568;28;20440;-78
2023/08/09 06:38:22;;;;;;;4.30;2.35;;;22.10;61.50;;;;;;5015382;28;20038;-78
2023/08/09 06:40:47;;;;;;;2.88;2.10;;;22.50;60.30;;;;;;5031459;28;20045;-79
2023/08/09 06:43:13;;;;;;;3.95;2.63;;;22.70;58.80;;;;;;5047813;28;20038;-78
2023/08/09 06:45:39;;;;;;;2.80;2.38;;;23.00;58.10;;;;;;4998846;28;20037;-79
2023/08/09 06:48:07;;;;;;;3.50;2.15;;;23.30;57.50;;;;;;5032228;28;20037;-79
2023/08/09 06:50:33;;;;;;;3.15;2.10;;;23.50;56.50;;;;;;5018574;28;20034;-79
2023/08/09 06:52:59;;;;;;;3.22;2.35;;;23.70;55.80;;;;;;5034946;28;20050;-78
2023/08/09 06:55:25;;;;;;;4.15;2.10;;;23.90;55.50;;;;;;5034869;28;20091;-78
2023/08/09 06:57:51;;;;;;;3.40;2.05;;;24.10;55.10;;;;;;5018320;28;20041;-78
2023/08/09 07:00:17;;;;;;;3.38;2.25;;;24.30;54.50;;;;;;5001806;28;20041;-78
2023/08/09 07:02:45;;;;;;;3.53;1.90;;;24.60;54.20;;;;;;5018564;28;20040;-78
2023/08/09 07:05:15;;;;;;;3.75;1.80;;;24.80;53.30;;;;;;5034759;28;20046;-78
2023/08/09 07:07:45;;;;;;;3.65;2.28;;;25.10;52.50;;;;;;5018156;28;20095;-78
2023/08/09 07:10:12;;;;;;;3.25;1.63;;;25.20;51.70;;;;;;5034842;28;20041;-78
2023/08/09 07:12:38;;;;;;;2.85;1.92;;;25.40;51.10;;;;;;5034815;28;20046;-78
2023/08/09 07:15:08;;;;;;;2.92;1.80;;;25.50;50.90;;;;;;5017932;28;20044;-78
2023/08/09 07:17:38;;;;;;;4.35;2.08;;;25.60;50.80;;;;;;5034406;28;20042;-78
2023/08/09 07:20:11;;;;;;;2.50;1.67;;;25.60;50.70;;;;;;5001963;28;20142;-78
2023/08/09 07:22:39;;;;;;;2.08;1.80;;;25.70;50.20;;;;;;5002411;28;20117;-79
2023/08/09 07:25:09;;;;;;;2.70;1.30;;;25.70;50.30;;;;;;5017870;28;20056;-78
2023/08/09 07:27:43;;;;;;;1.77;1.58;;;25.80;50.20;;;;;;5034394;28;20041;-79
2023/08/09 07:30:11;;;;;;;2.17;1.63;;;25.80;50.20;;;;;;5018113;28;20043;-79
2023/08/09 07:32:38;;;;;;;1.42;1.27;;;25.90;49.80;;;;;;5034188;28;20053;-80
2023/08/09 07:35:05;;;;;;;2.58;1.27;;;26.00;49.40;;;;;;5051137;28;20042;-79
2023/08/09 07:37:32;;;;;;;2.17;1.27;;;26.20;48.90;;;;;;5051202;28;20047;-79
2023/08/09 07:39:58;;;;;;;2.45;1.35;;;26.20;48.40;;;;;;5017660;28;20046;-79
2023/08/09 07:42:24;;;;;;;2.22;1.35;;;26.30;48.20;;;;;;5018015;28;20124;-79
2023/08/09 07:44:50;;;;;;;3.28;1.33;;;26.30;47.60;;;;;;5034205;28;20427;-79
2023/08/09 07:47:15;;;;;;;4.05;1.80;;;26.30;47.60;;;;;;5017825;28;20382;-79
2023/08/09 07:49:41;;;;;;;1.45;1.00;;;26.40;47.80;;;;;;4985388;28;20044;-80
2023/08/09 07:52:07;;;;;;;2.80;1.60;;;26.40;47.50;;;;;;4985166;28;20095;-78
2023/08/09 07:54:33;;;;;;;2.90;1.35;;;26.40;47.00;;;;;;5017394;28;20045;-80
2023/08/09 07:56:58;;;;;;;2.67;1.40;;;26.40;47.10;;;;;;4984974;28;20049;-81
2023/08/09 07:59:24;;;;;;;3.42;2.13;;;26.50;46.80;;;;;;5001344;28;20041;-82
2023/08/09 08:01:50;;;;;;;2.28;1.15;;;26.50;46.80;;;;;;5034183;28;20503;-82
2023/08/09 08:04:15;;;;;;;2.53;1.30;;;26.60;46.90;;;;;;5017023;28;20042;-82
2023/08/09 08:06:41;;;;;;;3.55;1.58;;;26.60;46.70;;;;;;4981501;28;20038;-82
2023/08/09 08:09:12;;;;;;;2.35;1.55;;;26.70;46.80;;;;;;4997792;28;20061;-82
2023/08/09 08:11:39;;;;;;;3.05;1.40;;;26.80;47.10;;;;;;4997323;28;20117;-82
2023/08/09 08:14:05;;;;;;;3.55;1.23;;;26.80;47.10;;;;;;4997756;28;20050;-82
2023/08/09 08:16:31;;;;;;;2.75;1.52;;;26.90;46.50;;;;;;4997246;28;20046;-81
2023/08/09 08:18:57;;;;;;;2.58;1.30;;;26.90;46.60;;;;;;4997222;28;20195;-82
2023/08/09 08:21:23;;;;;;;3.35;1.67;;;26.90;45.90;;;;;;4981027;28;20112;-82
2023/08/09 08:23:48;;;;;;;3.92;1.70;;;26.90;45.70;;;;;;5013247;28;20129;-84
2023/08/09 08:26:15;;;;;;;2.70;1.20;;;26.80;45.40;;;;;;4981135;28;20041;-85
2023/08/09 08:28:41;;;;;;;1.80;1.20;;;26.80;46.00;;;;;;4997144;28;20038;-82
2023/08/09 08:31:07;;;;;;;2.00;1.15;;;26.80;46.40;;;;;;5013309;28;20038;-82
2023/08/09 08:33:34;;;;;;;3.75;1.58;;;26.80;46.70;;;;;;4997149;28;20065;-83
2023/08/09 08:35:59;;;;;;;2.47;1.42;;;26.90;46.10;;;;;;4996992;28;20050;-82
2023/08/09 08:38:26;;;;;;;1.80;1.00;;;26.80;46.50;;;;;;4980871;28;20100;-82
2023/08/09 08:40:52;;;;;;;1.05;0.70;;;26.80;47.40;;;;;;5013160;28;20049;-82
2023/08/09 08:43:19;;;;;;;2.60;1.27;;;26.90;46.00;;;;;;4996938;28;20514;-83
2023/08/09 08:45:49;;;;;;;1.20;0.73;;;27.00;45.40;;;;;;4997245;28;20101;-84
2023/08/09 08:48:17;;;;;;;3.53;0.77;;;27.00;44.90;;;;;;4997493;28;20417;-85
2023/08/09 08:50:46;;;;;;;1.88;0.80;;;27.10;44.90;;;;;;5013445;28;20038;-85
2023/08/09 08:53:13;;;;;;;2.97;0.77;;;27.10;44.40;;;;;;4997124;28;20046;-84
2023/08/09 08:55:39;;;;;;;1.60;0.70;;;27.20;42.90;;;;;;4980636;28;20558;-85
2023/08/09 08:58:05;;;;;;;2.20;0.95;;;27.20;43.50;;;;;;4997190;28;20049;-84
2023/08/09 09:00:30;;;;;;;3.20;0.98;;;27.20;42.60;;;;;;4964486;28;20377;-84
2023/08/09 09:02:56;;;;;;;2.70;0.88;;;27.20;42.00;;;;;;4964393;28;20095;-84
2023/08/09 09:05:23;;;;;;;2.50;0.90;;;27.20;41.60;;;;;;4983474;28;20044;-83
2023/08/09 09:07:56;;;;;;;2.05;0.77;;;27.10;41.10;;;;;;5000251;28;20034;-82
2023/08/09 09:10:26;;;;;;;2.37;1.10;;;27.00;41.10;;;;;;5015787;28;20037;-83
2023/08/09 09:12:56;;;;;;;3.22;1.00;;;27.00;41.50;;;;;;5032254;28;20366;-83
2023/08/09 09:15:22;;;;;;;2.47;0.80;;;26.90;41.70;;;;;;5016378;28;20493;-83
2023/08/09 09:17:49;;;;;;;2.60;0.80;;;26.90;41.90;;;;;;5016273;28;20041;-83
2023/08/09 09:20:24;;;;;;;1.90;1.15;;;26.90;42.00;;;;;;4999842;28;20511;-77
2023/08/09 09:22:51;;;;;;;2.22;1.02;;;26.90;42.40;;;;;;5016076;28;20055;-81
2023/08/09 09:25:17;;;;;;;2.63;1.00;;;26.80;41.60;;;;;;4999829;28;20481;-80
2023/08/09 09:27:51;;;;;;;2.45;1.00;;;26.70;42.20;;;;;;5032383;28;20046;-81
2023/08/09 09:30:24;;;;;;;2.92;1.15;;;26.70;42.30;;;;;;5016090;28;20507;-81
2023/08/09 09:32:52;;;;;;;3.10;1.10;;;26.60;42.60;;;;;;5015692;28;20053;-81
2023/08/09 09:35:19;;;;;;;1.95;0.82;;;26.50;42.90;;;;;;5016051;28;20442;-81
2023/08/09 09:37:52;;;;;;;2.50;0.98;;;26.40;41.40;;;;;;5016094;28;20393;-81
2023/08/09 09:40:27;;;;;;;1.33;0.73;;;26.30;41.70;;;;;;5015841;28;20192;-81
2023/08/09 09:42:54;;;;;;;1.35;0.80;;;26.20;41.80;;;;;;5015776;28;20077;-81
2023/08/09 09:45:23;;;;;;;2.92;0.82;;;26.10;42.40;;;;;;4999843;28;20073;-82
2023/08/09 09:47:49;;;;;;;1.85;0.65;;;26.00;43.00;;;;;;5000754;28;20381;-81
2023/08/09 09:50:17;;;;;;;3.08;0.80;;;25.90;42.80;;;;;;5032177;28;20081;-81
2023/08/09 09:52:43;;;;;;;1.92;0.80;;;25.90;42.30;;;;;;5015956;28;20427;-82
2023/08/09 09:55:10;;;;;;;2.00;0.70;;;25.80;42.30;;;;;;5032003;28;20041;-82
2023/08/09 09:57:36;;;;;;;1.60;0.60;;;25.80;41.60;;;;;;5015954;28;20045;-81
2023/08/09 10:00:08;;;;;;;3.28;0.82;;;25.70;41.50;;;;;;5016324;28;20033;-82
2023/08/09 10:03:01;;;;;;;2.92;0.60;;;25.60;40.30;;;;;;5032452;28;20106;-81
2023/08/09 10:05:39;;;;;;;4.07;0.82;;;25.60;40.40;;;;;;5013881;28;20054;-81
2023/08/09 10:08:10;;;;;;;3.63;0.93;;;25.50;40.30;;;;;;5031848;28;20080;-81
2023/08/09 10:10:37;;;;;;;1.80;0.50;;;25.40;40.70;;;;;;5031946;28;20076;-82
2023/08/09 10:13:05;;;;;;;1.92;0.60;;;25.40;40.50;;;;;;5048724;28;20037;-81
2023/08/09 10:15:59;;;;;;;1.83;0.65;;;25.30;40.50;;;;;;5015398;28;20565;-82
2023/08/09 10:18:35;;;;;;;1.58;0.75;;;25.30;41.00;;;;;;5013237;28;20098;-81
2023/08/09 10:21:03;;;;;;;2.42;0.77;;;25.20;40.50;;;;;;5015240;28;20080;-81
2023/08/09 10:23:29;;;;;;;3.38;0.77;;;25.20;40.20;;;;;;5017941;28;20041;-80
2023/08/09 10:25:56;;;;;;;1.70;0.60;;;25.10;40.30;;;;;;5019200;28;20037;-81
2023/08/09 10:28:49;;;;;;;1.58;0.70;;;25.10;40.60;;;;;;5019431;28;20092;-80
2023/08/09 10:31:51;;;;;;;3.30;0.80;;;25.10;40.40;;;;;;5018716;28;20037;-81
2023/08/09 10:34:34;;;;;;;2.15;0.60;;;25.10;40.50;;;;;;5035505;28;20563;-80
2023/08/09 10:37:01;;;;;;;2.30;0.80;;;25.00;40.70;;;;;;5035538;28;20046;-81
2023/08/09 10:39:28;;;;;;;2.05;1.00;;;25.00;41.60;;;;;;5019081;28;20048;-80
2023/08/09 10:42:14;;;;;;;1.40;0.80;;;25.00;41.50;;;;;;5003232;28;20041;-81
2023/08/09 10:44:49;;;;;;;2.42;0.75;;;25.00;42.10;;;;;;5035202;28;20099;-81
2023/08/09 10:47:20;;;;;;;4.30;1.42;;;25.00;42.30;;;;;;5019230;28;20467;-81
2023/08/09 10:49:49;;;;;;;2.33;0.90;;;25.00;42.40;;;;;;5019021;28;20038;-81
2023/08/09 10:52:29;;;;;;;1.58;0.70;;;24.90;42.30;;;;;;5018729;28;20041;-81
2023/08/09 10:55:20;;;;;;;2.08;0.70;;;24.90;42.40;;;;;;5018927;28;20041;-80
2023/08/09 10:57:50;;;;;;;2.50;0.85;;;24.90;43.00;;;;;;5018764;28;20507;-80
2023/08/09 11:00:18;;;;;;;3.00;0.90;;;24.90;43.10;;;;;;5035449;28;20393;-80
2023/08/09 11:02:47;;;;;;;1.85;1.05;;;24.90;43.30;;;;;;5002563;28;20076;-77
2023/08/09 11:05:13;;;;;;;3.65;1.10;;;24.80;43.40;;;;;;5018286;28;20607;-77
2023/08/09 11:07:50;;;;;;;2.10;1.02;;;24.80;43.30;;;;;;5034957;28;20047;-80
2023/08/09 11:10:32;;;;;;;2.92;1.02;;;24.80;43.60;;;;;;5018322;28;20041;-80
2023/08/09 11:13:01;;;;;;;2.13;1.00;;;24.80;43.30;;;;;;5034810;28;20045;-79
2023/08/09 11:15:27;;;;;;;1.65;0.80;;;24.70;42.90;;;;;;5034614;28;20042;-80
2023/08/09 11:17:53;;;;;;;6.10;1.23;;;24.70;42.70;;;;;;5018357;28;20045;-79
2023/08/09 11:20:19;;;;;;;2.88;0.90;;;24.70;42.10;;;;;;4986048;28;20473;-80
2023/08/09 11:22:53;;;;;;;1.70;0.85;;;24.70;42.00;;;;;;5001863;28;20048;-80
2023/08/09 11:25:19;;;;;;;1.92;1.08;;;24.70;42.40;;;;;;5019256;28;20037;-80
2023/08/09 11:27:44;;;;;;;2.33;1.05;;;24.60;42.60;;;;;;5002128;28;20397;-79
2023/08/09 11:30:11;;;;;;;2.88;1.15;;;24.60;42.60;;;;;;5001806;28;20048;-79
2023/08/09 11:32:37;;;;;;;2.90;0.80;;;24.60;42.50;;;;;;5001587;28;20050;-79
2023/08/09 11:35:03;;;;;;;2.20;0.80;;;24.60;42.60;;;;;;5000877;28;20114;-79
2023/08/09 11:37:30;;;;;;;2.90;0.98;;;24.60;43.10;;;;;;5034360;28;20041;-78
2023/08/09 11:39:56;;;;;;;2.08;1.10;;;24.60;43.60;;;;;;5034244;28;20128;-79
2023/08/09 11:42:22;;;;;;;4.32;1.50;;;24.60;43.40;;;;;;5001496;28;20077;-79
2023/08/09 11:44:48;;;;;;;2.95;1.00;;;24.70;43.40;;;;;;4984977;28;20037;-79
2023/08/09 11:47:14;;;;;;;2.10;1.00;;;24.60;43.50;;;;;;4985157;28;20374;-79
2023/08/09 11:49:40;;;;;;;2.65;1.30;;;24.60;44.10;;;;;;5001249;28;20124;-79
2023/08/09 11:52:07;;;;;;;4.35;1.40;;;24.60;44.50;;;;;;5017490;28;20044;-78
2023/08/09 11:54:33;;;;;;;4.07;1.50;;;24.60;44.90;;;;;;5034287;28;20053;-79
2023/08/09 11:56:59;;;;;;;3.35;1.45;;;24.60;45.40;;;;;;4984819;28;20040;-78
2023/08/09 11:59:25;;;;;;;2.20;0.93;;;24.60;45.00;;;;;;5001278;28;20039;-77
2023/08/09 12:01:58;;;;;;;2.92;1.10;;;24.60;44.70;;;;;;5017328;28;20460;-78
2023/08/09 12:04:26;;;;;;;2.75;1.25;;;24.50;44.70;;;;;;5033628;28;20065;-78
2023/08/09 12:06:54;;;;;;;1.40;0.90;;;24.50;44.90;;;;;;5017177;28;20481;-78
2023/08/09 12:09:30;;;;;;;2.95;1.00;;;24.40;44.80;;;;;;5017353;28;20033;-78
2023/08/09 12:12:17;;;;;;;1.83;0.93;;;24.40;44.80;;;;;;5017101;28;20037;-79
2023/08/09 12:14:53;;;;;;;2.17;1.42;;;24.40;45.20;;;;;;5033385;28;20033;-78
2023/08/09 12:17:21;;;;;;;1.65;0.95;;;24.40;45.50;;;;;;5000676;28;20045;-78
2023/08/09 12:19:47;;;;;;;2.22;1.27;;;24.40;45.80;;;;;;5017182;28;20064;-78
2023/08/09 12:22:13;;;;;;;2.13;1.35;;;24.40;45.70;;;;;;5033414;28;20485;-79
2023/08/09 12:24:39;;;;;;;2.70;1.48;;;24.40;45.50;;;;;;5016825;28;20049;-78
2023/08/09 12:27:06;;;;;;;2.95;1.25;;;24.40;45.20;;;;;;5017118;28;20077;-78
2023/08/09 12:29:32;;;;;;;2.42;1.10;;;24.30;45.70;;;;;;5017601;28;20263;-78
2023/08/09 12:31:59;;;;;;;5.38;1.10;;;24.40;46.10;;;;;;5017642;28;20080;-79
2023/08/09 12:34:26;;;;;;;2.47;0.98;;;24.30;46.00;;;;;;5002690;28;20064;-77
2023/08/09 12:36:52;;;;;;;3.10;1.20;;;24.30;46.40;;;;;;5036643;28;20052;-79
2023/08/09 12:39:18;;;;;;;5.20;1.60;;;24.20;47.20;;;;;;5017303;28;20061;-79
2023/08/09 12:41:45;;;;;;;2.42;1.00;;;24.20;47.40;;;;;;5002233;28;20088;-78
2023/08/09 12:44:11;;;;;;;3.03;1.10;;;24.10;46.90;;;;;;5016703;28;20041;-78
2023/08/09 12:46:39;;;;;;;2.80;1.10;;;24.00;47.10;;;;;;5016928;28;20064;-78
2023/08/09 12:49:06;;;;;;;1.73;0.93;;;24.00;46.90;;;;;;5016635;28;20044;-78
2023/08/09 12:51:33;;;;;;;2.33;0.80;;;23.90;45.70;;;;;;5000405;28;20037;-78